Time;durP1;ratioP1;P1;durP2;ratioP2;P2;SDS_P1;SDS_P2;PMS_P1;PMS_P2;Temp;Humidity;BMP_temperature;BMP_pressure;BME280_temperature;BME280_humidity;BME280_pressure;Samples;Min_cycle;Max_cycle;Signal;HPM_P1;HPM_P2
2021/08/02 00:00:13;;;;;;;;;2.00;2.00;;;;;21.55;43.37;100913.25;5081762;27;45433;-50
2021/08/02 00:02:49;;;;;;;;;2.00;2.00;;;;;21.51;43.51;100908.13;5081918;28;45273;-50
2021/08/02 00:05:16;;;;;;;;;2.25;2.00;;;;;21.49;43.21;100913.56;5082795;28;45249;-52
2021/08/02 00:07:43;;;;;;;;;4.00;2.25;;;;;21.48;43.46;100905.66;5082889;27;46235;-51
2021/08/02 00:10:10;;;;;;;;;4.00;3.00;;;;;21.47;43.57;100914.63;5082382;27;45378;-52
2021/08/02 00:13:00;;;;;;;;;1.75;0.75;;;;;21.45;43.74;100912.03;5082860;28;45366;-50
2021/08/02 00:15:27;;;;;;;;;2.50;2.00;;;;;21.43;43.69;100912.13;5071607;28;45478;-51
2021/08/02 00:17:52;;;;;;;;;2.25;2.25;;;;;21.42;43.64;100915.75;5082617;28;46193;-49
2021/08/02 00:20:32;;;;;;;;;2.00;1.00;;;;;21.40;43.12;100904.28;5082422;28;45222;-52
2021/08/02 00:22:59;;;;;;;;;1.50;0.75;;;;;21.39;43.65;100907.88;5081588;28;45349;-53
2021/08/02 00:25:26;;;;;;;;;1.25;1.25;;;;;21.39;43.66;100912.38;5082495;28;45219;-50
2021/08/02 00:27:53;;;;;;;;;2.50;2.00;;;;;21.38;43.63;100908.88;5082282;28;45253;-54
2021/08/02 00:30:19;;;;;;;;;2.00;2.00;;;;;21.36;43.71;100913.44;5082569;28;45334;-51
2021/08/02 00:32:44;;;;;;;;;3.00;2.00;;;;;21.32;43.67;100905.66;5081175;28;45327;-52
2021/08/02 00:35:10;;;;;;;;;2.00;2.00;;;;;21.32;43.98;100911.88;5082601;27;45395;-53
2021/08/02 00:37:45;;;;;;;;;3.00;1.50;;;;;21.30;43.88;100913.78;5082272;28;46367;-52
2021/08/02 00:40:22;;;;;;;;;4.00;3.00;;;;;21.27;44.14;100914.81;5082253;28;45268;-51
2021/08/02 00:43:25;;;;;;;;;3.00;3.00;;;;;21.25;43.89;100915.84;5082464;28;45473;-51
2021/08/02 00:45:51;;;;;;;;;2.00;2.00;;;;;21.23;43.62;100915.06;5082102;28;46063;-52
2021/08/02 00:48:23;;;;;;;;;1.75;1.75;;;;;21.19;44.19;100910.84;5082156;28;46321;-53
2021/08/02 00:50:50;;;;;;;;;2.00;2.00;;;;;21.19;43.71;100913.50;5068959;28;45330;-52
2021/08/02 00:53:25;;;;;;;;;3.00;3.00;;;;;21.16;44.08;100916.38;5082441;28;45399;-49
2021/08/02 00:56:03;;;;;;;;;6.00;3.00;;;;;21.14;44.37;100918.25;5080995;28;45535;-53
2021/08/02 00:58:31;;;;;;;;;2.00;2.00;;;;;21.11;44.53;100925.47;5082010;28;46947;-50
2021/08/02 01:00:56;;;;;;;;;2.25;2.25;;;;;21.10;43.92;100917.56;5080982;28;45216;-52
2021/08/02 01:03:22;;;;;;;;;2.00;2.00;;;;;21.06;44.67;100922.22;5082093;28;45233;-52
2021/08/02 01:05:51;;;;;;;;;2.00;1.00;;;;;21.05;44.23;100916.97;5082067;28;45442;-52
2021/08/02 01:08:30;;;;;;;;;3.75;1.50;;;;;21.03;44.10;100916.16;5080515;28;47119;-52
2021/08/02 01:11:00;;;;;;;;;4.25;3.00;;;;;20.99;44.41;100915.47;5080406;27;45185;-52
2021/08/02 01:13:28;;;;;;;;;1.75;1.75;;;;;21.00;44.73;100911.84;5063678;28;45352;-52
2021/08/02 01:15:58;;;;;;;;;3.00;3.00;;;;;20.99;44.71;100909.28;5081866;28;45433;-51
2021/08/02 01:18:23;;;;;;;;;3.50;3.50;;;;;20.96;44.68;100904.13;5081864;28;48352;-49
2021/08/02 01:20:52;;;;;;;;;2.00;1.50;;;;;20.95;44.85;100900.56;5081585;28;45348;-50
2021/08/02 01:23:19;;;;;;;;;2.00;1.75;;;;;20.94;44.69;100907.75;5080809;28;45374;-50
2021/08/02 01:25:45;;;;;;;;;2.00;2.00;;;;;20.95;44.37;100911.25;5081497;28;45412;-52
2021/08/02 01:28:13;;;;;;;;;2.00;2.00;;;;;20.94;44.72;100912.19;5081529;28;45239;-52
2021/08/02 01:30:39;;;;;;;;;2.50;1.00;;;;;20.93;44.71;100918.50;5081613;27;45348;-50
2021/08/02 01:33:05;;;;;;;;;2.00;2.00;;;;;20.92;44.81;100916.78;5081615;28;45329;-50
2021/08/02 01:35:31;;;;;;;;;4.25;2.75;;;;;20.89;44.42;100920.47;5081404;27;45433;-51
2021/08/02 01:37:56;;;;;;;;;2.00;2.00;;;;;20.88;44.44;100921.41;5081575;28;46396;-51
2021/08/02 01:40:22;;;;;;;;;2.75;2.00;;;;;20.86;44.90;100919.78;5081098;27;45406;-53
2021/08/02 01:42:47;;;;;;;;;2.00;2.00;;;;;20.82;44.60;100915.53;5081480;28;45311;-52
2021/08/02 01:45:14;;;;;;;;;2.50;2.50;;;;;20.81;45.11;100911.16;5081304;28;45469;-50
2021/08/02 01:47:59;;;;;;;;;3.75;3.00;;;;;20.79;45.12;100919.22;5081335;28;46477;-48
2021/08/02 01:50:35;;;;;;;;;3.00;2.00;;;;;20.76;44.55;100920.25;5081043;28;45503;-52
2021/08/02 01:53:00;;;;;;;;;5.50;3.00;;;;;20.76;44.91;100914.06;5080274;28;45198;-52
2021/08/02 01:55:26;;;;;;;;;4.00;4.00;;;;;20.74;44.89;100907.94;5080864;28;45284;-49
2021/08/02 01:58:00;;;;;;;;;3.25;3.00;;;;;20.72;44.81;100921.38;5081058;28;46301;-52
2021/08/02 02:00:28;;;;;;;;;2.50;2.25;;;;;20.70;45.29;100917.03;5081085;28;45286;-50
2021/08/02 02:03:13;;;;;;;;;3.00;2.00;;;;;20.66;45.16;100918.16;5079868;28;45431;-52
2021/08/02 02:05:43;;;;;;;;;5.50;4.50;;;;;20.63;45.08;100921.84;5079849;28;45448;-50
2021/08/02 02:08:27;;;;;;;;;3.75;3.75;;;;;20.61;45.24;100923.75;5080426;28;45823;-48
2021/08/02 02:11:00;;;;;;;;;4.00;4.00;;;;;20.59;45.34;100925.63;5080828;27;45389;-52
2021/08/02 02:13:35;;;;;;;;;4.25;4.00;;;;;20.58;45.06;100926.59;5079641;28;45357;-52
2021/08/02 02:16:02;;;;;;;;;6.75;5.25;;;;;20.54;45.02;100925.88;5081020;28;45363;-51
2021/08/02 02:18:31;;;;;;;;;3.50;3.50;;;;;20.54;44.92;100925.00;5079635;28;47459;-52
2021/08/02 02:20:59;;;;;;;;;4.50;3.50;;;;;20.53;45.10;100923.31;5080484;27;45220;-52
2021/08/02 02:23:25;;;;;;;;;2.75;2.00;;;;;20.51;45.51;100919.84;5081059;28;45342;-51
2021/08/02 02:25:51;;;;;;;;;4.50;4.00;;;;;20.46;45.46;100918.28;5080563;28;45425;-52
2021/08/02 02:28:17;;;;;;;;;2.25;2.25;;;;;20.49;45.04;100911.03;5080568;28;45327;-51
2021/08/02 02:30:45;;;;;;;;;3.00;3.00;;;;;20.48;45.30;100911.97;5080719;28;45323;-52
2021/08/02 02:33:14;;;;;;;;;3.50;3.00;;;;;20.46;45.20;100910.28;5080950;28;45415;-50
2021/08/02 02:35:40;;;;;;;;;3.50;3.50;;;;;20.46;45.17;100918.28;5080557;27;45274;-52
2021/08/02 02:38:10;;;;;;;;;4.00;4.00;;;;;20.45;45.34;100916.56;5080650;28;45414;-50
2021/08/02 02:40:37;;;;;;;;;7.00;4.50;;;;;20.44;45.82;100912.16;5080222;28;45391;-50
2021/08/02 02:43:04;;;;;;;;;3.75;3.75;;;;;20.43;45.30;100918.44;5080726;28;45162;-49
2021/08/02 02:45:31;;;;;;;;;4.50;4.00;;;;;20.43;45.62;100910.44;5080425;28;45347;-50
2021/08/02 02:47:57;;;;;;;;;4.00;3.50;;;;;20.41;45.13;100909.63;5080415;28;46233;-52
2021/08/02 02:50:23;;;;;;;;;3.00;3.00;;;;;20.41;45.81;100911.44;5080259;27;45307;-50
2021/08/02 02:52:49;;;;;;;;;5.25;4.00;;;;;20.41;45.73;100909.63;5080539;28;45192;-50
2021/08/02 02:55:15;;;;;;;;;4.00;3.25;;;;;20.40;45.56;100913.28;5080106;28;45172;-52
2021/08/02 02:57:41;;;;;;;;;5.50;5.00;;;;;20.39;45.16;100916.88;5062024;28;45997;-49
2021/08/02 03:00:08;;;;;;;;;3.75;3.75;;;;;20.40;45.35;100920.41;5078765;28;45239;-51
2021/08/02 03:02:35;;;;;;;;;3.50;2.75;;;;;20.30;45.54;100907.56;5079192;28;45365;-50
2021/08/02 03:05:03;;;;;;;;;2.25;2.25;;;;;20.37;45.84;100917.91;5079951;28;45273;-51
2021/08/02 03:07:31;;;;;;;;;3.50;3.00;;;;;20.36;45.34;100919.69;5080266;28;45361;-49
2021/08/02 03:09:58;;;;;;;;;3.75;3.75;;;;;20.34;46.07;100918.94;5079664;27;45383;-47
2021/08/02 03:12:23;;;;;;;;;4.00;3.00;;;;;20.34;45.93;100915.38;5078968;28;45368;-49
2021/08/02 03:14:49;;;;;;;;;3.50;3.50;;;;;20.32;45.48;100907.47;5079866;28;45248;-51
2021/08/02 03:17:14;;;;;;;;;4.25;3.50;;;;;20.30;45.90;100912.00;5078767;28;47466;-51
2021/08/02 03:19:40;;;;;;;;;3.50;3.50;;;;;20.29;45.56;100915.63;5079639;27;45433;-52
2021/08/02 03:22:23;;;;;;;;;4.25;4.25;;;;;20.25;45.54;100908.72;5082580;27;45434;-48
2021/08/02 03:24:56;;;;;;;;;4.25;2.50;;;;;20.26;46.14;100927.34;5082396;28;45312;-51
2021/08/02 03:27:33;;;;;;;;;4.00;4.00;;;;;20.24;45.62;100917.69;5083305;28;46331;-52
2021/08/02 03:30:03;;;;;;;;;4.25;4.00;;;;;20.23;46.18;100923.97;5083571;27;45339;-51
2021/08/02 03:32:30;;;;;;;;;5.25;4.50;;;;;20.21;46.06;100928.50;5082195;28;45217;-49
2021/08/02 03:35:02;;;;;;;;;4.75;4.00;;;;;20.19;46.35;100927.72;5083720;27;45246;-52
2021/08/02 03:37:27;;;;;;;;;5.25;4.75;;;;;20.18;46.35;100932.19;5081932;28;45324;-51
2021/08/02 03:39:54;;;;;;;;;4.75;2.50;;;;;20.17;45.90;100933.13;5083097;27;45384;-50
2021/08/02 03:42:22;;;;;;;;;4.50;4.50;;;;;20.16;46.53;100939.41;5083399;27;45370;-51
2021/08/02 03:44:49;;;;;;;;;3.50;3.50;;;;;20.14;46.51;100935.97;5082093;28;45837;-52
2021/08/02 03:47:14;;;;;;;;;3.50;3.50;;;;;20.12;46.09;100937.84;5082913;28;45292;-52
2021/08/02 03:49:40;;;;;;;;;4.50;4.50;;;;;20.11;46.10;100944.13;5083144;28;45314;-52
2021/08/02 03:52:06;;;;;;;;;3.25;3.25;;;;;20.08;45.97;100939.81;5083344;28;45313;-50
2021/08/02 03:54:31;;;;;;;;;4.00;4.00;;;;;20.08;46.65;100945.13;5082953;28;45524;-52
2021/08/02 03:56:59;;;;;;;;;4.00;3.50;;;;;20.07;46.67;100942.56;5082897;28;45841;-51
2021/08/02 03:59:25;;;;;;;;;4.75;4.75;;;;;20.06;46.32;100941.69;5081888;28;45224;-51
2021/08/02 04:01:50;;;;;;;;;5.25;4.00;;;;;20.05;46.22;100945.31;5083012;28;45161;-47
2021/08/02 04:04:16;;;;;;;;;4.00;4.00;;;;;20.04;46.67;100948.06;5082995;28;45505;-47
2021/08/02 04:06:41;;;;;;;;;4.50;3.75;;;;;20.01;46.23;100949.03;5082738;28;46286;-47
2021/08/02 04:09:10;;;;;;;;;5.00;3.50;;;;;19.98;46.68;100946.53;5082712;28;45247;-48
2021/08/02 04:11:36;;;;;;;;;5.25;4.50;;;;;19.98;46.42;100949.22;5081723;27;45276;-47
2021/08/02 04:14:02;;;;;;;;;4.00;4.00;;;;;19.96;46.34;100948.41;5082731;28;45309;-51
2021/08/02 04:16:27;;;;;;;;;4.00;4.00;;;;;19.92;46.59;100950.41;5064341;28;46056;-49
2021/08/02 04:18:53;;;;;;;;;3.25;3.25;;;;;19.94;46.41;100961.84;5082951;28;45243;-51
2021/08/02 04:21:18;;;;;;;;;5.00;5.00;;;;;19.92;46.54;100965.53;5082585;27;45383;-49
2021/08/02 04:23:44;;;;;;;;;5.25;4.25;;;;;19.90;46.89;100962.06;5081633;28;45363;-52
2021/08/02 04:26:12;;;;;;;;;5.00;5.00;;;;;19.88;47.18;100963.97;5082169;28;46162;-53
2021/08/02 04:28:38;;;;;;;;;7.25;4.25;;;;;19.86;47.08;100973.81;5082563;28;45285;-51
2021/08/02 04:31:03;;;;;;;;;5.00;3.25;;;;;19.83;47.13;100976.66;5082378;27;45292;-50
2021/08/02 04:33:29;;;;;;;;;4.25;4.25;;;;;19.80;47.26;100977.63;5081331;28;45506;-49
2021/08/02 04:35:54;;;;;;;;;5.00;3.75;;;;;19.77;47.17;100978.66;5082339;27;46365;-50
2021/08/02 04:38:19;;;;;;;;;5.25;3.25;;;;;19.75;47.34;100979.66;5081270;28;45361;-49
2021/08/02 04:40:45;;;;;;;;;5.50;5.00;;;;;19.73;47.39;100979.72;5082233;27;45239;-50
2021/08/02 04:43:10;;;;;;;;;5.00;4.25;;;;;19.68;47.23;100984.41;5082452;28;45368;-50
2021/08/02 04:45:35;;;;;;;;;7.00;4.50;;;;;19.67;47.10;100981.84;5082072;28;46155;-49
2021/08/02 04:48:01;;;;;;;;;5.50;5.50;;;;;19.65;47.22;100982.75;5082468;28;45337;-51
2021/08/02 04:50:26;;;;;;;;;4.00;4.00;;;;;19.61;47.60;100978.53;5082236;27;45268;-50
2021/08/02 04:52:52;;;;;;;;;5.00;5.00;;;;;19.59;47.32;100974.22;5082464;28;45319;-51
2021/08/02 04:55:18;;;;;;;;;6.25;6.25;;;;;19.57;47.64;100973.41;5081820;28;45382;-49
2021/08/02 04:57:44;;;;;;;;;7.00;4.50;;;;;19.53;47.74;100970.03;5082229;28;45377;-48
2021/08/02 05:00:10;;;;;;;;;5.75;4.75;;;;;19.51;47.61;100968.38;5081957;28;45268;-52
2021/08/02 05:02:35;;;;;;;;;4.00;4.00;;;;;19.49;47.70;100974.63;5082081;28;45471;-51
2021/08/02 05:05:01;;;;;;;;;5.50;4.25;;;;;19.48;47.60;100972.06;5080510;28;46857;-48
2021/08/02 05:07:26;;;;;;;;;4.25;4.25;;;;;19.46;47.73;100973.94;5082094;28;45250;-51
2021/08/02 05:09:52;;;;;;;;;6.75;4.50;;;;;19.46;47.77;100980.13;5081789;28;45229;-50
2021/08/02 05:12:17;;;;;;;;;4.25;4.25;;;;;19.46;47.79;100985.47;5081900;28;45589;-51
2021/08/02 05:14:43;;;;;;;;;6.00;5.00;;;;;19.45;47.85;100980.22;5080505;28;48415;-50
2021/08/02 05:17:09;;;;;;;;;5.00;5.00;;;;;19.44;47.74;100987.31;5081925;28;45294;-50
2021/08/02 05:19:34;;;;;;;;;4.00;4.00;;;;;19.42;47.83;100991.88;5080402;27;45553;-53
2021/08/02 05:22:00;;;;;;;;;6.50;4.75;;;;;19.42;48.03;100993.66;5080444;27;45327;-51
2021/08/02 05:24:25;;;;;;;;;7.75;5.75;;;;;19.37;48.04;100985.03;5081452;28;45513;-50
2021/08/02 05:26:51;;;;;;;;;2.50;2.50;;;;;19.37;47.75;100990.34;5081622;28;45496;-50
2021/08/02 05:29:17;;;;;;;;;6.25;5.75;;;;;19.35;48.10;100986.91;5081569;28;45390;-50
2021/08/02 05:31:42;;;;;;;;;6.25;6.25;;;;;19.34;48.40;100983.38;5081668;28;45425;-52
2021/08/02 05:34:07;;;;;;;;;4.75;3.50;;;;;19.34;48.12;100983.38;5081356;28;46186;-51
2021/08/02 05:36:33;;;;;;;;;4.25;4.25;;;;;19.32;48.08;100987.94;5081720;28;45268;-52
2021/08/02 05:38:59;;;;;;;;;5.00;5.00;;;;;19.35;48.17;100992.25;5081395;28;45258;-48
2021/08/02 05:41:24;;;;;;;;;7.50;6.00;;;;;19.33;48.01;100992.28;5081462;28;45640;-52
2021/08/02 05:43:49;;;;;;;;;8.00;7.00;;;;;19.34;48.52;100991.38;5080427;28;45926;-51
2021/08/02 05:46:15;;;;;;;;;2.25;2.25;;;;;19.35;48.13;100998.44;5081431;28;45232;-51
2021/08/02 05:48:43;;;;;;;;;5.75;5.75;;;;;19.36;48.19;100993.94;5081379;28;45165;-53
2021/08/02 05:51:08;;;;;;;;;5.25;5.00;;;;;19.36;48.27;100999.28;5081458;28;45327;-53
2021/08/02 05:53:34;;;;;;;;;7.00;7.00;;;;;19.40;48.50;100999.06;5080958;28;45339;-48
2021/08/02 05:55:59;;;;;;;;;7.50;6.25;;;;;19.41;48.09;101000.81;5081199;28;45241;-51
2021/08/02 05:58:24;;;;;;;;;6.25;5.75;;;;;19.44;48.28;101005.97;5081236;28;45422;-52
2021/08/02 06:00:49;;;;;;;;;4.00;4.00;;;;;19.46;48.44;101005.94;5079922;28;45397;-51
2021/08/02 06:03:15;;;;;;;;;7.25;6.00;;;;;19.45;48.52;101013.03;5079685;28;48591;-52
2021/08/02 06:05:40;;;;;;;;;9.50;6.50;;;;;19.49;48.14;101013.75;5081368;28;45251;-53
2021/08/02 06:08:05;;;;;;;;;8.25;7.00;;;;;19.53;48.63;101015.34;5081132;28;46483;-51
2021/08/02 06:10:31;;;;;;;;;5.00;5.00;;;;;19.57;48.56;101018.72;5080909;27;45255;-52
2021/08/02 06:12:56;;;;;;;;;7.75;6.25;;;;;19.59;48.51;101014.19;5079542;28;47066;-49
2021/08/02 06:15:22;;;;;;;;;8.00;6.00;;;;;19.61;48.81;101015.00;5081058;28;45473;-53
2021/08/02 06:17:47;;;;;;;;;4.00;3.00;;;;;19.67;48.88;101020.00;5079881;28;45383;-52
2021/08/02 06:20:13;;;;;;;;;5.75;5.75;;;;;19.70;48.74;101017.22;5080719;28;45379;-51
2021/08/02 06:22:39;;;;;;;;;7.75;5.50;;;;;19.73;48.88;101018.88;5080675;28;45187;-52
2021/08/02 06:25:05;;;;;;;;;4.00;4.00;;;;;19.77;48.73;101017.75;5080608;28;45236;-50
2021/08/02 06:27:31;;;;;;;;;6.00;4.00;;;;;19.79;48.58;101021.22;5080742;28;45178;-52
2021/08/02 06:29:58;;;;;;;;;4.75;4.75;;;;;19.82;48.80;101026.41;5062492;27;45300;-52
2021/08/02 06:32:24;;;;;;;;;5.00;4.25;;;;;19.87;48.92;101020.88;5080405;28;47451;-53
2021/08/02 06:34:49;;;;;;;;;5.00;4.00;;;;;19.90;48.54;101032.28;5080584;28;45362;-50
2021/08/02 06:37:14;;;;;;;;;6.75;5.00;;;;;19.94;48.93;101025.00;5080819;28;45320;-53
2021/08/02 06:39:40;;;;;;;;;4.25;4.25;;;;;19.95;48.74;101024.06;5080654;28;45425;-53
2021/08/02 06:42:05;;;;;;;;;6.00;5.00;;;;;19.98;48.63;101031.88;5078938;28;46295;-53
2021/08/02 06:44:30;;;;;;;;;7.50;4.50;;;;;20.01;48.43;101028.22;5080721;28;45319;-51
2021/08/02 06:46:56;;;;;;;;;5.00;5.00;;;;;20.07;48.92;101028.75;5080500;28;45327;-52
2021/08/02 06:49:21;;;;;;;;;5.50;5.00;;;;;20.10;49.00;101023.28;5079105;28;45475;-52
2021/08/02 06:51:46;;;;;;;;;6.25;5.50;;;;;20.13;48.97;101027.59;5080165;28;47581;-52
2021/08/02 06:54:12;;;;;;;;;4.50;4.50;;;;;20.18;49.09;101030.06;5079091;28;45438;-52
2021/08/02 06:56:37;;;;;;;;;5.50;4.50;;;;;20.20;49.11;101025.47;5080407;28;45322;-51
2021/08/02 06:59:02;;;;;;;;;4.50;3.50;;;;;20.24;48.66;101021.75;5080395;28;45362;-53
2021/08/02 07:01:28;;;;;;;;;5.50;5.00;;;;;20.30;49.13;101034.75;5080069;28;45468;-51
2021/08/02 07:03:53;;;;;;;;;5.25;4.00;;;;;20.33;48.75;101039.09;5080364;28;45359;-51
2021/08/02 07:06:19;;;;;;;;;5.25;4.00;;;;;20.27;48.56;101022.44;5080218;28;45322;-52
2021/08/02 07:08:44;;;;;;;;;4.75;4.75;;;;;20.38;49.05;101034.38;5080193;28;45475;-51
2021/08/02 07:11:09;;;;;;;;;5.00;5.00;;;;;20.43;49.24;101041.19;5079737;27;47028;-50
2021/08/02 07:13:35;;;;;;;;;6.50;5.75;;;;;20.47;49.11;101036.56;5079841;28;45306;-52
2021/08/02 07:16:01;;;;;;;;;2.75;2.50;;;;;20.49;48.86;101036.50;5080064;28;45327;-53
2021/08/02 07:18:27;;;;;;;;;6.75;6.00;;;;;20.55;48.71;101033.50;5080292;28;45173;-52
2021/08/02 07:20:53;;;;;;;;;7.75;7.25;;;;;20.59;48.87;101037.75;5078371;27;47387;-52
2021/08/02 07:23:18;;;;;;;;;5.50;5.00;;;;;20.61;49.23;101034.03;5080106;28;45267;-52
2021/08/02 07:25:44;;;;;;;;;5.25;4.25;;;;;20.63;48.76;101039.31;5079678;28;45252;-53
2021/08/02 07:28:09;;;;;;;;;5.00;4.00;;;;;20.63;48.70;101037.50;5078514;28;45441;-53
2021/08/02 07:30:35;;;;;;;;;5.00;5.00;;;;;20.71;48.97;101045.16;5079691;28;46165;-53
2021/08/02 07:33:01;;;;;;;;;4.00;2.75;;;;;20.74;49.00;101039.66;5079897;28;45353;-53
2021/08/02 07:35:27;;;;;;;;;5.00;4.75;;;;;20.78;48.66;101049.22;5079954;27;45307;-54
2021/08/02 07:37:53;;;;;;;;;4.00;3.00;;;;;20.81;48.79;101040.19;5078808;28;45344;-54
2021/08/02 07:40:18;;;;;;;;;5.25;4.25;;;;;20.84;48.53;101039.16;5079207;27;46089;-51
2021/08/02 07:42:43;;;;;;;;;4.25;3.75;;;;;20.88;49.03;101038.06;5079845;28;45338;-53
2021/08/02 07:45:09;;;;;;;;;5.75;5.25;;;;;20.91;48.55;101049.44;5079641;28;45160;-51
2021/08/02 07:47:35;;;;;;;;;7.00;6.00;;;;;20.96;48.75;101046.53;5079644;28;45546;-52
2021/08/02 07:50:00;;;;;;;;;5.00;5.00;;;;;20.96;48.93;101035.84;5079205;28;45268;-50
2021/08/02 07:52:26;;;;;;;;;7.50;7.50;;;;;21.01;48.67;101033.78;5078462;28;45697;-50
2021/08/02 07:54:52;;;;;;;;;4.50;4.50;;;;;21.06;48.92;101044.25;5079384;28;45455;-51
2021/08/02 07:57:17;;;;;;;;;6.00;4.25;;;;;21.06;48.68;101042.44;5079366;28;45506;-53
2021/08/02 07:59:43;;;;;;;;;4.00;3.00;;;;;21.11;48.38;101045.72;5079461;28;46115;-50
2021/08/02 08:02:08;;;;;;;;;6.25;5.25;;;;;21.16;48.39;101047.28;5079481;28;45234;-53
2021/08/02 08:04:33;;;;;;;;;4.75;4.00;;;;;21.20;48.75;101047.03;5079696;28;45235;-52
2021/08/02 08:06:59;;;;;;;;;5.00;4.00;;;;;21.26;48.70;101043.16;5082335;28;45363;-52
2021/08/02 08:09:24;;;;;;;;;4.25;2.75;;;;;21.30;48.70;101044.72;5081505;28;45431;-50
2021/08/02 08:11:50;;;;;;;;;6.75;5.00;;;;;21.31;48.76;101043.78;5082557;27;45414;-53
2021/08/02 08:14:15;;;;;;;;;4.50;4.50;;;;;21.33;48.80;101046.38;5083060;28;45306;-51
2021/08/02 08:16:41;;;;;;;;;4.75;4.75;;;;;21.37;48.61;101039.91;5082669;28;45310;-53
2021/08/02 08:19:06;;;;;;;;;5.50;5.00;;;;;21.42;48.20;101037.81;5081334;28;46291;-53
2021/08/02 08:21:35;;;;;;;;;6.25;3.50;;;;;21.45;48.30;101034.16;5082383;27;45482;-53
2021/08/02 08:24:02;;;;;;;;;4.00;4.00;;;;;21.50;48.14;101038.28;5082726;28;45283;-53
2021/08/02 08:26:27;;;;;;;;;8.25;5.50;;;;;21.53;48.80;101031.91;5082203;28;45442;-51
2021/08/02 08:28:53;;;;;;;;;5.00;4.75;;;;;21.55;48.93;101033.56;5082465;28;45164;-52
2021/08/02 08:31:18;;;;;;;;;8.00;6.25;;;;;21.60;48.23;101036.00;5082568;27;45253;-51
2021/08/02 08:33:44;;;;;;;;;8.75;4.00;;;;;21.66;48.52;101040.13;5082574;28;45410;-52
2021/08/02 08:36:11;;;;;;;;;8.75;5.50;;;;;21.59;48.35;101026.25;5081017;28;45318;-51
2021/08/02 08:38:37;;;;;;;;;5.00;4.00;;;;;21.72;48.10;101037.97;5082271;28;46210;-50
2021/08/02 08:41:02;;;;;;;;;6.25;5.00;;;;;21.78;48.52;101031.41;5081903;28;45335;-51
2021/08/02 08:43:28;;;;;;;;;7.75;5.00;;;;;21.86;48.17;101033.63;5082351;28;45233;-52
2021/08/02 08:45:53;;;;;;;;;6.25;5.25;;;;;21.88;48.45;101026.41;5082191;28;45644;-51
2021/08/02 08:48:18;;;;;;;;;5.75;4.00;;;;;21.96;48.17;101034.88;5082553;28;45514;-52
2021/08/02 08:50:45;;;;;;;;;8.00;6.25;;;;;21.98;48.32;101035.63;5082066;27;45318;-52
2021/08/02 08:53:11;;;;;;;;;4.75;4.75;;;;;22.03;48.33;101032.69;5082671;28;45217;-49
2021/08/02 08:55:41;;;;;;;;;7.75;5.75;;;;;22.07;48.15;101040.47;5081798;28;45181;-52
2021/08/02 08:58:07;;;;;;;;;5.25;5.25;;;;;22.08;48.37;101033.28;5081794;28;47006;-51
2021/08/02 09:00:35;;;;;;;;;5.25;3.00;;;;;22.12;48.54;101042.00;5081979;27;45319;-52
2021/08/02 09:03:09;;;;;;;;;5.50;4.00;;;;;22.15;47.96;101036.44;5082382;28;45283;-53
2021/08/02 09:05:36;;;;;;;;;4.50;4.00;;;;;22.16;47.89;101035.50;5080721;28;45425;-52
2021/08/02 09:08:02;;;;;;;;;6.00;5.00;;;;;22.19;47.86;101036.19;5081876;28;46986;-53
2021/08/02 09:10:27;;;;;;;;;6.50;4.00;;;;;22.20;47.78;101042.41;5081527;27;45232;-53
2021/08/02 09:13:02;;;;;;;;;7.25;5.25;;;;;22.20;48.07;101045.94;5081960;28;45228;-52
2021/08/02 09:15:34;;;;;;;;;3.75;3.50;;;;;22.22;48.01;101048.53;5081984;28;45461;-51
2021/08/02 09:18:01;;;;;;;;;6.00;5.00;;;;;22.23;47.86;101036.88;5080408;28;45332;-49
2021/08/02 09:20:26;;;;;;;;;6.00;5.00;;;;;22.24;48.12;101043.97;5080379;27;45248;-53
2021/08/02 09:22:53;;;;;;;;;4.50;4.50;;;;;22.23;47.91;101042.22;5081736;28;45550;-53
2021/08/02 09:25:21;;;;;;;;;4.00;4.00;;;;;22.29;47.86;101043.66;5081569;28;45232;-54
2021/08/02 09:27:49;;;;;;;;;5.50;5.50;;;;;22.32;47.82;101035.47;5079973;28;47220;-50
2021/08/02 09:30:23;;;;;;;;;7.50;5.25;;;;;22.38;47.98;101035.16;5081401;27;45285;-53
2021/08/02 09:32:51;;;;;;;;;6.75;5.50;;;;;22.37;47.73;101031.59;5081400;28;45302;-52
2021/08/02 09:35:26;;;;;;;;;5.50;5.50;;;;;22.37;47.95;101036.94;5081610;27;45255;-49
2021/08/02 09:38:00;;;;;;;;;4.50;3.00;;;;;22.44;47.78;101050.84;5081157;28;45177;-52
2021/08/02 09:40:26;;;;;;;;;4.00;3.75;;;;;22.45;47.90;101038.31;5081071;27;45380;-51
2021/08/02 09:42:57;;;;;;;;;6.75;4.00;;;;;22.46;47.52;101037.38;5081099;27;45211;-53
2021/08/02 09:45:24;;;;;;;;;6.25;4.25;;;;;22.49;47.81;101037.16;5081260;28;45321;-49
2021/08/02 09:47:50;;;;;;;;;4.25;3.00;;;;;22.50;47.29;101039.78;5079973;28;46146;-51
2021/08/02 09:50:30;;;;;;;;;4.75;3.75;;;;;22.53;47.48;101031.53;5081044;27;45237;-48
2021/08/02 09:52:56;;;;;;;;;3.50;3.50;;;;;22.53;47.52;101039.56;5081587;28;45383;-49
2021/08/02 09:55:22;;;;;;;;;4.50;3.00;;;;;22.53;47.84;101038.72;5079645;28;45359;-51
2021/08/02 09:57:51;;;;;;;;;5.00;4.00;;;;;22.55;47.50;101037.69;5079579;28;48083;-50
2021/08/02 10:00:18;;;;;;;;;5.00;4.25;;;;;22.57;47.27;101037.59;5080922;27;45440;-52
2021/08/02 10:02:46;;;;;;;;;7.25;6.00;;;;;22.60;47.54;101034.72;5081102;28;45252;-51
2021/08/02 10:05:14;;;;;;;;;4.25;3.00;;;;;22.65;46.93;101034.44;5080904;28;45541;-52
2021/08/02 10:07:42;;;;;;;;;5.00;5.00;;;;;22.72;47.23;101028.59;5080927;27;46107;-52
2021/08/02 10:10:08;;;;;;;;;3.50;3.00;;;;;22.79;47.20;101030.91;5079145;27;45302;-51
2021/08/02 10:12:41;;;;;;;;;6.00;3.00;;;;;22.84;46.99;101024.34;5080935;28;45392;-49
2021/08/02 10:15:12;;;;;;;;;5.00;5.00;;;;;22.89;46.88;101029.38;5080790;28;45575;-51
2021/08/02 10:17:38;;;;;;;;;11.50;10.50;;;;;22.93;46.97;101027.38;5080615;28;46388;-51
2021/08/02 10:20:14;;;;;;;;;2.75;2.75;;;;;22.98;46.85;101023.47;5080758;28;45243;-52
2021/08/02 10:22:44;;;;;;;;;5.75;4.25;;;;;23.06;46.89;101017.63;5080916;28;45241;-48
2021/08/02 10:25:10;;;;;;;;;3.75;3.75;;;;;23.07;46.71;101030.09;5080561;28;45353;-51
2021/08/02 10:27:35;;;;;;;;;3.25;2.00;;;;;23.10;46.89;101016.47;5080351;28;46150;-48
2021/08/02 10:30:00;;;;;;;;;2.00;2.00;;;;;23.14;46.71;101025.19;5079241;27;45294;-55
2021/08/02 10:32:27;;;;;;;;;2.50;2.00;;;;;23.21;46.34;101029.25;5080791;28;45332;-52
2021/08/02 10:34:55;;;;;;;;;2.00;2.00;;;;;23.25;46.15;101022.72;5080708;27;45256;-52
2021/08/02 10:37:35;;;;;;;;;2.75;2.00;;;;;23.31;45.96;101013.44;5080528;28;45469;-51
2021/08/02 10:40:06;;;;;;;;;1.75;1.00;;;;;23.37;45.88;101019.28;5080117;28;45310;-52
2021/08/02 10:42:32;;;;;;;;;1.75;1.75;;;;;23.45;45.80;101023.28;5079081;28;45257;-53
2021/08/02 10:44:59;;;;;;;;;2.00;2.00;;;;;23.49;45.42;101025.66;5079170;28;45240;-50
2021/08/02 10:47:39;;;;;;;;;1.25;1.25;;;;;23.57;45.05;101021.63;5079033;28;46177;-51
2021/08/02 10:50:06;;;;;;;;;3.75;2.50;;;;;23.59;45.30;101031.28;5080359;28;45348;-51
2021/08/02 10:52:31;;;;;;;;;2.75;2.00;;;;;23.65;45.28;101022.00;5079258;28;45398;-50
2021/08/02 10:54:58;;;;;;;;;1.75;1.00;;;;;23.72;45.33;101017.94;5080055;28;45424;-52
2021/08/02 10:57:23;;;;;;;;;2.75;2.75;;;;;23.84;44.95;101017.13;5080274;27;47132;-51
2021/08/02 10:59:49;;;;;;;;;3.00;2.00;;;;;23.95;44.62;101024.53;5080009;28;45300;-53
2021/08/02 11:02:15;;;;;;;;;0.00;0.00;;;;;24.08;44.78;101026.41;5080915;28;45314;-51
2021/08/02 11:04:41;;;;;;;;;2.50;1.75;;;;;24.18;44.91;101019.44;5078842;28;45425;-50
2021/08/02 11:07:07;;;;;;;;;2.00;2.00;;;;;24.26;44.50;101022.44;5078838;28;47283;-53
2021/08/02 11:09:35;;;;;;;;;1.00;1.00;;;;;24.42;44.56;101014.22;5079922;28;45396;-53
2021/08/02 11:12:05;;;;;;;;;1.25;1.00;;;;;24.58;44.60;101018.53;5080208;28;45231;-52
2021/08/02 11:14:31;;;;;;;;;2.25;2.25;;;;;24.71;44.04;101016.75;5079916;28;45362;-51
2021/08/02 11:16:57;;;;;;;;;2.50;2.50;;;;;24.89;44.33;101011.94;5080172;28;46675;-51
2021/08/02 11:19:24;;;;;;;;;2.25;2.25;;;;;25.06;44.26;101012.56;5079835;28;45387;-52
2021/08/02 11:21:58;;;;;;;;;3.00;1.75;;;;;25.25;44.74;101007.56;5080074;27;45276;-50
2021/08/02 11:24:24;;;;;;;;;4.00;2.00;;;;;25.40;44.59;100996.72;5078317;28;45534;-50